createdAt,value
2017-09-01T00:00:54.765Z,1014.17
2017-09-01T00:02:07.127Z,1014.23
2017-09-01T00:03:19.796Z,1014.24
2017-09-01T00:04:32.365Z,1014.26
2017-09-01T00:05:44.972Z,1014.29
2017-09-01T00:06:57.257Z,1014.21
2017-09-01T00:08:09.804Z,1014.26
2017-09-01T00:09:22.399Z,1014.25
2017-09-01T00:10:35.020Z,1014.22
2017-09-01T00:11:47.564Z,1014.2
2017-09-01T00:13:00.121Z,1014.14
2017-09-01T00:14:12.686Z,1014.13
2017-09-01T00:15:25.254Z,1014.1
2017-09-01T00:16:37.591Z,1014.05
2017-09-01T00:17:49.903Z,1014.08
2017-09-01T00:19:02.562Z,1014.07
2017-09-01T00:20:15.101Z,1014.1
2017-09-01T00:21:27.680Z,1014.04
2017-09-01T00:22:40.350Z,1013.97
2017-09-01T00:23:52.980Z,1013.95
2017-09-01T00:25:05.259Z,1013.94
2017-09-01T00:26:17.494Z,1013.92
2017-09-01T00:27:29.785Z,1013.92
2017-09-01T00:28:42.335Z,1013.98
2017-09-01T00:29:54.686Z,1013.91
2017-09-01T00:31:06.975Z,1013.92
2017-09-01T00:32:18.939Z,1013.93
2017-09-01T00:33:31.540Z,1013.98
2017-09-01T00:34:44.176Z,1013.97
2017-09-01T00:35:56.702Z,1013.99
2017-09-01T00:37:09.337Z,1013.98
2017-09-01T00:38:21.917Z,1014.03
2017-09-01T00:39:34.546Z,1014.04
2017-09-01T00:40:47.117Z,1014.07
2017-09-01T00:41:59.738Z,1014.06
2017-09-01T00:43:12.002Z,1014.08
2017-09-01T00:44:24.529Z,1014.09
2017-09-01T00:45:37.094Z,1014.12
2017-09-01T00:46:49.389Z,1014.13
2017-09-01T00:48:01.958Z,1014.15
2017-09-01T00:49:14.557Z,1014.14
2017-09-01T00:50:27.125Z,1014.15
2017-09-01T00:51:39.357Z,1014.16
2017-09-01T00:52:52.020Z,1014.14
2017-09-01T00:54:04.254Z,1014.14
2017-09-01T00:55:16.866Z,1014.13
2017-09-01T00:56:29.379Z,1014.19
2017-09-01T00:57:42.029Z,1014.19
2017-09-01T00:58:54.620Z,1014.23
2017-09-01T01:00:07.140Z,1014.24
2017-09-01T01:01:19.718Z,1014.25
2017-09-01T01:02:32.331Z,1014.23
2017-09-01T01:03:44.951Z,1014.24
2017-09-01T01:04:57.572Z,1014.29
2017-09-01T01:06:10.168Z,1014.28
2017-09-01T01:07:22.745Z,1014.31
2017-09-01T01:08:34.409Z,1014.34
2017-09-01T01:09:46.999Z,1014.35
2017-09-01T01:10:59.607Z,1014.36
2017-09-01T01:12:12.214Z,1014.42
2017-09-01T01:13:24.791Z,1014.44
2017-09-01T01:14:36.744Z,1014.42
2017-09-01T01:15:49.309Z,1014.46
2017-09-01T01:17:01.972Z,1014.44
2017-09-01T01:18:14.468Z,1014.45
2017-09-01T01:19:27.064Z,1014.48
2017-09-01T01:20:39.641Z,1014.47
2017-09-01T01:21:52.143Z,1014.51
2017-09-01T01:23:04.710Z,1014.48
2017-09-01T01:24:17.309Z,1014.49
2017-09-01T01:25:29.954Z,1014.47
2017-09-01T01:26:42.201Z,1014.49
2017-09-01T01:27:54.796Z,1014.44
2017-09-01T01:29:07.341Z,1014.49
2017-09-01T01:30:19.950Z,1014.5
2017-09-01T01:31:32.556Z,1014.51
2017-09-01T01:32:45.108Z,1014.52
2017-09-01T01:33:57.135Z,1014.53
2017-09-01T01:35:09.430Z,1014.49
2017-09-01T01:36:22.041Z,1014.5
2017-09-01T01:37:34.590Z,1014.48
2017-09-01T01:38:47.168Z,1014.52
2017-09-01T01:39:59.772Z,1014.51
2017-09-01T01:41:12.368Z,1014.56
2017-09-01T01:42:24.997Z,1014.55
2017-09-01T01:43:37.633Z,1014.51
2017-09-01T01:44:50.204Z,1014.54
2017-09-01T01:46:02.760Z,1014.55
2017-09-01T01:47:15.016Z,1014.53
2017-09-01T01:48:27.594Z,1014.53
2017-09-01T01:49:39.564Z,1014.58
2017-09-01T01:50:52.436Z,1014.58
2017-09-01T01:52:04.963Z,1014.57
2017-09-01T01:53:17.230Z,1014.55
2017-09-01T01:54:29.811Z,1014.55
2017-09-01T01:55:42.339Z,1014.53
2017-09-01T01:56:54.586Z,1014.53
2017-09-01T01:58:07.117Z,1014.53
2017-09-01T01:59:19.076Z,1014.57
2017-09-01T02:00:31.664Z,1014.5
2017-09-01T02:01:44.243Z,1014.48
2017-09-01T02:02:56.821Z,1014.56
2017-09-01T02:04:09.435Z,1014.54
2017-09-01T02:05:21.706Z,1014.54
2017-09-01T02:06:34.326Z,1014.52
2017-09-01T02:07:46.584Z,1014.52
2017-09-01T02:08:58.827Z,1014.46
2017-09-01T02:10:11.412Z,1014.48
2017-09-01T02:11:23.669Z,1014.45
2017-09-01T02:12:35.985Z,1014.46
2017-09-01T02:13:48.235Z,1014.47
2017-09-01T02:15:00.826Z,1014.46
2017-09-01T02:16:13.347Z,1014.51
2017-09-01T02:17:25.893Z,1014.51
2017-09-01T02:18:38.214Z,1014.46
2017-09-01T02:19:50.763Z,1014.51
2017-09-01T02:21:03.053Z,1014.51
2017-09-01T02:22:15.660Z,1014.52
2017-09-01T02:23:28.515Z,1014.55
2017-09-01T02:24:40.478Z,1014.5
2017-09-01T02:25:53.042Z,1014.48
2017-09-01T02:27:05.609Z,1014.45
2017-09-01T02:28:18.225Z,1014.49
2017-09-01T02:29:30.779Z,1014.51
2017-09-01T02:30:43.041Z,1014.5
2017-09-01T02:31:55.309Z,1014.55
2017-09-01T02:33:07.604Z,1014.53
2017-09-01T02:34:19.890Z,1014.5
2017-09-01T02:35:32.419Z,1014.49
2017-09-01T02:36:45.067Z,1014.46
2017-09-01T02:37:57.315Z,1014.42
2017-09-01T02:39:09.959Z,1014.43
2017-09-01T02:40:22.206Z,1014.41
2017-09-01T02:41:34.875Z,1014.37
2017-09-01T02:42:47.457Z,1014.32
2017-09-01T02:44:00.096Z,1014.33
2017-09-01T02:45:12.641Z,1014.35
2017-09-01T02:46:25.256Z,1014.3
2017-09-01T02:47:37.880Z,1014.34
2017-09-01T02:48:50.525Z,1014.32
2017-09-01T02:50:03.110Z,1014.3
2017-09-01T02:51:15.117Z,1014.25
2017-09-01T02:52:27.424Z,1014.19
2017-09-01T02:53:40.038Z,1014.18
2017-09-01T02:54:52.601Z,1014.17
2017-09-01T02:56:05.157Z,1014.15
2017-09-01T02:57:17.497Z,1014.21
2017-09-01T02:58:30.063Z,1014.18
2017-09-01T02:59:42.589Z,1014.2
2017-09-01T03:00:55.215Z,1014.15
2017-09-01T03:02:07.828Z,1014.19
2017-09-01T03:03:20.432Z,1014.22
2017-09-01T03:04:33.045Z,1014.27
2017-09-01T03:05:45.364Z,1014.24
2017-09-01T03:06:57.993Z,1014.25
2017-09-01T03:08:10.324Z,1014.31
2017-09-01T03:09:22.915Z,1014.32
2017-09-01T03:10:34.867Z,1014.31
2017-09-01T03:11:47.415Z,1014.32
2017-09-01T03:12:59.985Z,1014.32
2017-09-01T03:14:12.292Z,1014.31
2017-09-01T03:15:24.863Z,1014.31
2017-09-01T03:16:37.501Z,1014.28
2017-09-01T03:17:50.142Z,1014.32
2017-09-01T03:19:02.707Z,1014.32
2017-09-01T03:20:15.316Z,1014.28
2017-09-01T03:21:27.909Z,1014.25
2017-09-01T03:22:40.236Z,1014.26
2017-09-01T03:23:52.852Z,1014.25
2017-09-01T03:25:05.416Z,1014.29
2017-09-01T03:26:18.019Z,1014.36
2017-09-01T03:27:30.259Z,1014.34
2017-09-01T03:28:42.559Z,1014.34
2017-09-01T03:29:55.135Z,1014.42
2017-09-01T03:31:07.726Z,1014.41
2017-09-01T03:32:20.002Z,1014.41
2017-09-01T03:33:32.572Z,1014.42
2017-09-01T03:34:45.156Z,1014.36
2017-09-01T03:35:57.462Z,1014.37
2017-09-01T03:37:10.115Z,1014.39
2017-09-01T03:38:22.676Z,1014.42
2017-09-01T03:39:35.465Z,1014.47
2017-09-01T03:40:48.015Z,1014.51
2017-09-01T03:42:00.267Z,1014.5
2017-09-01T03:43:12.880Z,1014.52
2017-09-01T03:44:25.508Z,1014.51
2017-09-01T03:45:38.103Z,1014.51
2017-09-01T03:46:50.737Z,1014.53
2017-09-01T03:48:03.284Z,1014.5
2017-09-01T03:49:15.580Z,1014.53
2017-09-01T03:50:28.150Z,1014.52
2017-09-01T03:51:40.727Z,1014.47
2017-09-01T03:52:53.316Z,1014.5
2017-09-01T03:54:05.562Z,1014.52
2017-09-01T03:55:17.831Z,1014.5
2017-09-01T03:56:30.364Z,1014.48
2017-09-01T03:57:42.675Z,1014.48
2017-09-01T03:58:55.220Z,1014.46
2017-09-01T04:00:07.790Z,1014.54
2017-09-01T04:01:20.364Z,1014.52
2017-09-01T04:02:33.010Z,1014.54
2017-09-01T04:03:45.646Z,1014.55
2017-09-01T04:04:58.247Z,1014.56
2017-09-01T04:06:10.511Z,1014.58
2017-09-01T04:07:23.145Z,1014.51
2017-09-01T04:08:35.734Z,1014.57
2017-09-01T04:09:48.281Z,1014.62
2017-09-01T04:11:00.837Z,1014.61
2017-09-01T04:12:13.458Z,1014.61
2017-09-01T04:13:26.028Z,1014.58
2017-09-01T04:14:38.331Z,1014.6
2017-09-01T04:15:50.633Z,1014.61
2017-09-01T04:17:02.865Z,1014.57
2017-09-01T04:18:15.468Z,1014.64
2017-09-01T04:19:28.060Z,1014.65
2017-09-01T04:20:40.672Z,1014.72
2017-09-01T04:21:52.937Z,1014.73
2017-09-01T04:23:05.206Z,1014.77
2017-09-01T04:24:17.810Z,1014.76
2017-09-01T04:25:30.373Z,1014.76
2017-09-01T04:26:42.995Z,1014.81
2017-09-01T04:27:55.544Z,1014.82
2017-09-01T04:29:08.147Z,1014.78
2017-09-01T04:30:20.789Z,1014.75
2017-09-01T04:31:33.377Z,1014.78
2017-09-01T04:32:45.948Z,1014.75
2017-09-01T04:33:58.568Z,1014.78
2017-09-01T04:35:10.843Z,1014.84
2017-09-01T04:36:23.186Z,1014.86
2017-09-01T04:37:35.706Z,1014.87
2017-09-01T04:38:48.257Z,1014.89
2017-09-01T04:40:00.559Z,1014.91
2017-09-01T04:41:12.853Z,1014.92
2017-09-01T04:42:25.488Z,1014.91
2017-09-01T04:43:38.008Z,1014.96
2017-09-01T04:44:50.628Z,1014.93
2017-09-01T04:46:03.160Z,1014.89
2017-09-01T04:47:15.071Z,1014.91
2017-09-01T04:48:27.707Z,1014.93
2017-09-01T04:49:40.362Z,1014.95
2017-09-01T04:50:52.931Z,1014.96
2017-09-01T04:52:05.520Z,1014.97
2017-09-01T04:53:17.792Z,1014.98
2017-09-01T04:54:30.344Z,1015.01
2017-09-01T04:55:42.943Z,1015.07
2017-09-01T04:56:55.570Z,1015.06
2017-09-01T04:58:08.117Z,1015.04
2017-09-01T04:59:20.725Z,1015.05
2017-09-01T05:00:33.306Z,1015.04
2017-09-01T05:01:45.866Z,1015.13
2017-09-01T05:02:58.164Z,1015.13
2017-09-01T05:04:10.771Z,1015.15
2017-09-01T05:05:23.336Z,1015.16
2017-09-01T05:06:35.964Z,1015.16
2017-09-01T05:07:48.562Z,1015.08
2017-09-01T05:09:01.116Z,1015.07
2017-09-01T05:10:13.065Z,1015.11
2017-09-01T05:11:25.644Z,1015.08
2017-09-01T05:12:38.264Z,1015.1
2017-09-01T05:13:50.572Z,1015.07
2017-09-01T05:15:03.163Z,1015.09
2017-09-01T05:16:15.697Z,1015.1
2017-09-01T05:17:27.947Z,1015.05
2017-09-01T05:18:40.182Z,1015.11
2017-09-01T05:19:52.802Z,1015.05
2017-09-01T05:21:05.399Z,1015.05
2017-09-01T05:22:17.964Z,1015.06
2017-09-01T05:23:29.915Z,1015.05
2017-09-01T05:24:42.489Z,1015.06
2017-09-01T05:25:54.773Z,1015.01
2017-09-01T05:27:07.352Z,1014.99
2017-09-01T05:28:19.972Z,1014.96
2017-09-01T05:29:32.266Z,1015
2017-09-01T05:30:44.874Z,1014.96
2017-09-01T05:31:57.463Z,1015.04
2017-09-01T05:33:10.022Z,1015.08
2017-09-01T05:34:22.601Z,1015.08
2017-09-01T05:35:35.146Z,1015.16
2017-09-01T05:36:47.367Z,1015.16
2017-09-01T05:37:59.980Z,1015.17
2017-09-01T05:39:12.264Z,1015.22
2017-09-01T05:40:24.809Z,1015.23
2017-09-01T05:41:37.406Z,1015.24
2017-09-01T05:42:49.355Z,1015.26
2017-09-01T05:44:01.945Z,1015.26
2017-09-01T05:45:13.622Z,1015.29
2017-09-01T05:46:26.206Z,1015.26
2017-09-01T05:47:38.469Z,1015.3
2017-09-01T05:48:51.029Z,1015.26
2017-09-01T05:50:02.641Z,1015.21
2017-09-01T05:51:15.218Z,1015.18
2017-09-01T05:52:27.828Z,1015.17
2017-09-01T05:53:40.136Z,1015.16
2017-09-01T05:54:52.739Z,1015.15
2017-09-01T05:56:05.321Z,1015.13
2017-09-01T05:57:17.871Z,1015.1
2017-09-01T05:58:30.124Z,1015.09
2017-09-01T05:59:42.695Z,1015.09
2017-09-01T06:00:55.296Z,1015.12
2017-09-01T06:02:07.852Z,1015.14
2017-09-01T06:03:19.774Z,1015.17
2017-09-01T06:04:32.365Z,1015.23
2017-09-01T06:05:44.598Z,1015.26
2017-09-01T06:06:56.863Z,1015.24
2017-09-01T06:08:09.460Z,1015.26
2017-09-01T06:09:22.023Z,1015.26
2017-09-01T06:10:34.626Z,1015.25
2017-09-01T06:11:47.231Z,1015.26
2017-09-01T06:12:59.504Z,1015.29
2017-09-01T06:14:12.155Z,1015.32
2017-09-01T06:15:24.755Z,1015.37
2017-09-01T06:16:37.305Z,1015.41
2017-09-01T06:17:49.625Z,1015.43
2017-09-01T06:19:01.881Z,1015.4
2017-09-01T06:20:14.460Z,1015.42
2017-09-01T06:21:27.032Z,1015.39
2017-09-01T06:22:39.876Z,1015.34
2017-09-01T06:23:52.102Z,1015.31
2017-09-01T06:25:04.668Z,1015.29
2017-09-01T06:26:17.287Z,1015.25
2017-09-01T06:27:29.888Z,1015.26
2017-09-01T06:28:42.489Z,1015.28
2017-09-01T06:29:54.482Z,1015.29
2017-09-01T06:31:07.151Z,1015.34
2017-09-01T06:32:19.740Z,1015.35
2017-09-01T06:33:31.982Z,1015.36
2017-09-01T06:34:44.620Z,1015.34
2017-09-01T06:35:56.909Z,1015.34
2017-09-01T06:37:08.885Z,1015.36
2017-09-01T06:38:21.187Z,1015.32
2017-09-01T06:39:33.442Z,1015.34
2017-09-01T06:40:45.114Z,1015.41
2017-09-01T06:41:57.692Z,1015.35
2017-09-01T06:43:10.352Z,1015.39
2017-09-01T06:44:22.659Z,1015.38
2017-09-01T06:45:35.313Z,1015.38
2017-09-01T06:46:47.320Z,1015.35
2017-09-01T06:47:59.885Z,1015.34
2017-09-01T06:49:12.137Z,1015.36
2017-09-01T06:50:24.127Z,1015.42
2017-09-01T06:51:36.790Z,1015.35
2017-09-01T06:52:49.384Z,1015.34
2017-09-01T06:54:01.688Z,1015.32
2017-09-01T06:55:14.269Z,1015.31
2017-09-01T06:56:26.267Z,1015.41
2017-09-01T06:57:38.910Z,1015.45
2017-09-01T06:58:51.512Z,1015.43
2017-09-01T07:00:04.100Z,1015.43
2017-09-01T07:01:16.671Z,1015.43
2017-09-01T07:02:28.307Z,1015.39
2017-09-01T07:03:40.990Z,1015.38
2017-09-01T07:04:53.310Z,1015.44
2017-09-01T07:06:06.144Z,1015.48
2017-09-01T07:07:18.205Z,1015.43
2017-09-01T07:08:30.784Z,1015.47
2017-09-01T07:09:43.371Z,1015.42
2017-09-01T07:10:55.337Z,1015.47
2017-09-01T07:12:07.952Z,1015.41
2017-09-01T07:13:20.528Z,1015.38
2017-09-01T07:14:32.869Z,1015.38
2017-09-01T07:15:45.410Z,1015.41
2017-09-01T07:16:58.008Z,1015.45
2017-09-01T07:18:10.574Z,1015.43
2017-09-01T07:19:23.180Z,1015.47
2017-09-01T07:20:35.459Z,1015.45
2017-09-01T07:21:48.054Z,1015.48
2017-09-01T07:23:00.607Z,1015.49
2017-09-01T07:24:13.209Z,1015.52
2017-09-01T07:25:25.180Z,1015.56
2017-09-01T07:26:37.725Z,1015.68
2017-09-01T07:27:50.241Z,1015.71
2017-09-01T07:29:02.475Z,1015.65
2017-09-01T07:30:15.082Z,1015.68
2017-09-01T07:31:27.333Z,1015.71
2017-09-01T07:32:39.984Z,1015.68
2017-09-01T07:33:52.593Z,1015.69
2017-09-01T07:35:04.544Z,1015.64
2017-09-01T07:36:17.116Z,1015.7
2017-09-01T07:37:29.437Z,1015.7
2017-09-01T07:38:42.053Z,1015.77
2017-09-01T07:39:54.073Z,1015.7
2017-09-01T07:41:06.646Z,1015.73
2017-09-01T07:42:19.263Z,1015.69
2017-09-01T07:43:31.197Z,1015.72
2017-09-01T07:44:43.481Z,1015.67
2017-09-01T07:45:55.450Z,1015.72
2017-09-01T07:47:08.082Z,1015.69
2017-09-01T07:48:20.068Z,1015.62
2017-09-01T07:49:32.341Z,1015.64
2017-09-01T07:50:44.949Z,1015.64
2017-09-01T07:51:57.189Z,1015.64
2017-09-01T07:53:09.198Z,1015.61
2017-09-01T07:54:21.468Z,1015.65
2017-09-01T07:55:33.782Z,1015.66
2017-09-01T07:56:46.378Z,1015.66
2017-09-01T07:57:58.332Z,1015.64
2017-09-01T07:59:10.626Z,1015.64
2017-09-01T08:00:23.200Z,1015.66
2017-09-01T08:01:35.535Z,1015.65
2017-09-01T08:02:47.794Z,1015.65
2017-09-01T08:04:00.386Z,1015.68
2017-09-01T08:05:12.313Z,1015.7
2017-09-01T08:06:24.334Z,1015.7
2017-09-01T08:07:35.957Z,1015.63
2017-09-01T08:08:48.634Z,1015.65
2017-09-01T08:10:00.840Z,1015.63
2017-09-01T08:11:13.115Z,1015.63
2017-09-01T08:12:25.080Z,1015.67
2017-09-01T08:13:37.626Z,1015.65
2017-09-01T08:14:50.197Z,1015.62
2017-09-01T08:16:02.802Z,1015.6
2017-09-01T08:17:15.117Z,1015.64
2017-09-01T08:18:27.424Z,1015.61
2017-09-01T08:19:39.928Z,1015.57
2017-09-01T08:20:51.904Z,1015.53
2017-09-01T08:22:03.806Z,1015.54
2017-09-01T08:23:16.452Z,1015.51
2017-09-01T08:24:29.089Z,1015.48
2017-09-01T08:25:41.681Z,1015.42
2017-09-01T08:26:53.951Z,1015.39
2017-09-01T08:28:06.484Z,1015.41
2017-09-01T08:29:19.094Z,1015.41
2017-09-01T08:30:31.730Z,1015.4
2017-09-01T08:31:43.661Z,1015.37
2017-09-01T08:32:56.284Z,1015.38
2017-09-01T08:34:08.551Z,1015.37
2017-09-01T08:35:20.572Z,1015.41
2017-09-01T08:36:33.143Z,1015.37
2017-09-01T08:37:45.413Z,1015.41
2017-09-01T08:38:57.989Z,1015.38
2017-09-01T08:40:10.581Z,1015.46
2017-09-01T08:41:23.142Z,1015.42
2017-09-01T08:42:35.752Z,1015.45
2017-09-01T08:43:48.329Z,1015.45
2017-09-01T08:45:00.898Z,1015.45
2017-09-01T08:46:13.524Z,1015.39
2017-09-01T08:47:25.784Z,1015.38
2017-09-01T08:48:38.300Z,1015.38
2017-09-01T08:49:50.825Z,1015.36
2017-09-01T08:51:03.382Z,1015.38
2017-09-01T08:52:15.647Z,1015.32
2017-09-01T08:53:27.381Z,1015.37
2017-09-01T08:54:39.589Z,1015.31
2017-09-01T08:55:52.198Z,1015.3
2017-09-01T08:57:04.498Z,1015.34
2017-09-01T08:58:17.069Z,1015.34
2017-09-01T08:59:29.367Z,1015.35
2017-09-01T09:00:41.641Z,1015.31
2017-09-01T09:01:54.304Z,1015.31
2017-09-01T09:03:06.997Z,1015.23
2017-09-01T09:04:19.603Z,1015.28
2017-09-01T09:05:31.223Z,1015.25
2017-09-01T09:06:43.183Z,1015.25
2017-09-01T09:07:55.786Z,1015.24
2017-09-01T09:09:08.417Z,1015.25
2017-09-01T09:10:20.402Z,1015.28
2017-09-01T09:11:32.974Z,1015.22
2017-09-01T09:12:45.237Z,1015.26
2017-09-01T09:13:57.469Z,1015.2
2017-09-01T09:15:09.737Z,1015.27
2017-09-01T09:16:22.052Z,1015.26
2017-09-01T09:17:34.626Z,1015.27
2017-09-01T09:18:46.582Z,1015.23
2017-09-01T09:19:58.786Z,1015.19
2017-09-01T09:21:10.438Z,1015.19
2017-09-01T09:22:22.376Z,1015.18
2017-09-01T09:23:34.421Z,1015.17
2017-09-01T09:24:46.994Z,1015.11
2017-09-01T09:25:59.662Z,1015.08
2017-09-01T09:27:11.950Z,1015.09
2017-09-01T09:28:24.231Z,1015.09
2017-09-01T09:29:36.831Z,1015.16
2017-09-01T09:30:49.399Z,1015.15
2017-09-01T09:32:01.942Z,1015.21
2017-09-01T09:33:14.524Z,1015.22
2017-09-01T09:34:27.109Z,1015.21
2017-09-01T09:35:39.656Z,1015.18
2017-09-01T09:36:52.175Z,1015.17
2017-09-01T09:38:03.557Z,1015.18
2017-09-01T09:39:15.841Z,1015.18
2017-09-01T09:40:27.486Z,1015.27
2017-09-01T09:41:39.732Z,1015.26
2017-09-01T09:42:52.004Z,1015.26
2017-09-01T09:44:03.930Z,1015.23
2017-09-01T09:45:16.195Z,1015.15
2017-09-01T09:46:28.440Z,1015.13
2017-09-01T09:47:40.736Z,1015.15
2017-09-01T09:48:52.743Z,1015.13
2017-09-01T09:50:05.100Z,1015.16
2017-09-01T09:51:17.103Z,1015.19
2017-09-01T09:52:29.393Z,1015.13
2017-09-01T09:53:41.716Z,1015.13
2017-09-01T09:54:54.322Z,1015.12
2017-09-01T09:56:06.934Z,1015.17
2017-09-01T09:57:19.477Z,1015.1
2017-09-01T09:58:31.439Z,1015.17
2017-09-01T09:59:43.920Z,1015.12
2017-09-01T10:00:56.516Z,1015.21
2017-09-01T10:02:08.483Z,1015.2
2017-09-01T10:03:21.129Z,1015.25
2017-09-01T10:04:32.757Z,1015.22
2017-09-01T10:05:45.300Z,1015.17
2017-09-01T10:06:57.269Z,1015.16
2017-09-01T10:08:09.502Z,1015.12
2017-09-01T10:09:21.464Z,1015.2
2017-09-01T10:10:33.454Z,1015.17
2017-09-01T10:11:45.727Z,1015.08
2017-09-01T10:12:58.332Z,1015.14
2017-09-01T10:14:10.265Z,1015.22
2017-09-01T10:15:22.839Z,1015.23
2017-09-01T10:16:34.206Z,1015.34
2017-09-01T10:17:46.779Z,1015.28
2017-09-01T10:18:59.306Z,1015.35
2017-09-01T10:20:11.574Z,1015.32
2017-09-01T10:21:24.026Z,1015.28
2017-09-01T10:22:36.646Z,1015.25
2017-09-01T10:23:48.936Z,1015.18
2017-09-01T10:25:01.579Z,1015.13
2017-09-01T10:26:13.837Z,1015.1
2017-09-01T10:27:25.818Z,1015.14
2017-09-01T10:28:38.099Z,1015.16
2017-09-01T10:29:50.093Z,1015.12
2017-09-01T10:31:02.385Z,1015.14
2017-09-01T10:32:14.375Z,1015.08
2017-09-01T10:33:26.370Z,1015.07
2017-09-01T10:34:39.020Z,1015.08
2017-09-01T10:35:50.992Z,1015.08
2017-09-01T10:37:03.360Z,1015.12
2017-09-01T10:38:15.314Z,1015.11
2017-09-01T10:39:27.616Z,1015.15
2017-09-01T10:40:40.169Z,1015.14
2017-09-01T10:41:52.521Z,1015.17
2017-09-01T10:43:04.747Z,1015.13
2017-09-01T10:44:16.738Z,1015.15
2017-09-01T10:45:28.742Z,1015.16
2017-09-01T10:46:41.372Z,1015.12
2017-09-01T10:47:53.392Z,1015.14
2017-09-01T10:49:05.995Z,1015.08
2017-09-01T10:50:18.284Z,1015.03
2017-09-01T10:51:29.972Z,1015.08
2017-09-01T10:52:42.275Z,1015.08
2017-09-01T10:53:54.500Z,1015.08
2017-09-01T10:55:07.078Z,1015.06
2017-09-01T10:56:19.373Z,1015.03
2017-09-01T10:57:31.432Z,1014.99
2017-09-01T10:58:43.397Z,1014.98
2017-09-01T10:59:55.376Z,1014.97
2017-09-01T11:01:07.649Z,1015.01
2017-09-01T11:02:20.280Z,1015
2017-09-01T11:03:32.279Z,1015.02
2017-09-01T11:04:44.839Z,1015.04
2017-09-01T11:05:57.155Z,1015.03
2017-09-01T11:07:09.710Z,1015.07
2017-09-01T11:08:21.422Z,1015.07
2017-09-01T11:09:34.001Z,1015.03
2017-09-01T11:10:46.563Z,1015.02
2017-09-01T11:11:59.085Z,1014.98
2017-09-01T11:13:11.669Z,1014.94
2017-09-01T11:14:24.001Z,1014.93
2017-09-01T11:15:36.619Z,1014.97
2017-09-01T11:16:48.920Z,1014.94
2017-09-01T11:18:01.216Z,1014.9
2017-09-01T11:19:13.513Z,1014.88
2017-09-01T11:20:25.513Z,1014.9
2017-09-01T11:21:37.913Z,1014.93
2017-09-01T11:22:50.517Z,1014.87
2017-09-01T11:24:02.762Z,1014.91
2017-09-01T11:25:15.340Z,1014.92
2017-09-01T11:26:27.946Z,1014.88
2017-09-01T11:27:40.255Z,1014.92
2017-09-01T11:28:52.501Z,1014.85
2017-09-01T11:30:04.743Z,1014.91
2017-09-01T11:31:16.966Z,1014.9
2017-09-01T11:32:29.275Z,1014.91
2017-09-01T11:33:41.859Z,1014.95
2017-09-01T11:34:54.098Z,1014.86
2017-09-01T11:36:06.705Z,1014.94
2017-09-01T11:37:19.576Z,1014.87
2017-09-01T11:38:32.186Z,1014.86
2017-09-01T11:39:44.142Z,1014.85
2017-09-01T11:40:56.720Z,1014.86
2017-09-01T11:42:08.979Z,1014.8
2017-09-01T11:43:21.279Z,1014.81
2017-09-01T11:44:33.606Z,1014.8
2017-09-01T11:45:45.958Z,1014.76
2017-09-01T11:46:58.254Z,1014.82
2017-09-01T11:48:10.561Z,1014.82
2017-09-01T11:49:22.880Z,1014.79
2017-09-01T11:50:35.143Z,1014.77
2017-09-01T11:51:47.444Z,1014.74
2017-09-01T11:53:00.036Z,1014.76
2017-09-01T11:54:12.653Z,1014.75
2017-09-01T11:55:24.917Z,1014.73
2017-09-01T11:56:37.478Z,1014.74
2017-09-01T11:57:49.746Z,1014.74
2017-09-01T11:59:01.966Z,1014.69
2017-09-01T12:00:14.306Z,1014.7
2017-09-01T12:01:26.905Z,1014.77
2017-09-01T12:02:39.540Z,1014.74
2017-09-01T12:03:51.233Z,1014.76
2017-09-01T12:05:03.490Z,1014.76
2017-09-01T12:06:16.091Z,1014.79
2017-09-01T12:07:28.692Z,1014.75
2017-09-01T12:08:41.349Z,1014.72
2017-09-01T12:09:53.660Z,1014.74
2017-09-01T12:11:05.917Z,1014.73
2017-09-01T12:12:18.175Z,1014.74
2017-09-01T12:13:30.426Z,1014.75
2017-09-01T12:14:43.029Z,1014.71
2017-09-01T12:15:55.353Z,1014.72
2017-09-01T12:17:07.957Z,1014.69
2017-09-01T12:18:20.597Z,1014.71
2017-09-01T12:19:32.849Z,1014.74
2017-09-01T12:20:45.147Z,1014.75
2017-09-01T12:21:57.761Z,1014.72
2017-09-01T12:23:10.367Z,1014.69
2017-09-01T12:24:22.362Z,1014.67
2017-09-01T12:25:34.941Z,1014.69
2017-09-01T12:26:47.510Z,1014.65
2017-09-01T12:28:00.074Z,1014.68
2017-09-01T12:29:12.013Z,1014.65
2017-09-01T12:30:24.649Z,1014.68
2017-09-01T12:31:36.944Z,1014.63
2017-09-01T12:32:48.907Z,1014.66
2017-09-01T12:34:01.552Z,1014.62
2017-09-01T12:35:13.456Z,1014.66
2017-09-01T12:36:25.951Z,1014.62
2017-09-01T12:37:38.561Z,1014.66
2017-09-01T12:38:51.186Z,1014.63
2017-09-01T12:40:03.766Z,1014.64
2017-09-01T12:41:16.383Z,1014.65
2017-09-01T12:42:28.943Z,1014.67
2017-09-01T12:43:41.281Z,1014.65
2017-09-01T12:44:52.921Z,1014.62
2017-09-01T12:46:05.492Z,1014.61
2017-09-01T12:47:18.123Z,1014.55
2017-09-01T12:48:30.508Z,1014.62
2017-09-01T12:49:43.106Z,1014.56
2017-09-01T12:50:55.375Z,1014.57
2017-09-01T12:52:07.683Z,1014.55
2017-09-01T12:53:20.266Z,1014.56
2017-09-01T12:54:32.571Z,1014.56
2017-09-01T12:55:44.510Z,1014.5
2017-09-01T12:56:57.083Z,1014.46
2017-09-01T12:58:09.673Z,1014.48
2017-09-01T12:59:21.975Z,1014.4
2017-09-01T13:00:34.626Z,1014.4
2017-09-01T13:01:46.943Z,1014.39
2017-09-01T13:02:59.565Z,1014.38
2017-09-01T13:04:12.201Z,1014.41
2017-09-01T13:05:24.203Z,1014.37
2017-09-01T13:06:36.848Z,1014.37
2017-09-01T13:07:49.448Z,1014.39
2017-09-01T13:09:01.411Z,1014.44
2017-09-01T13:10:13.982Z,1014.43
2017-09-01T13:11:26.632Z,1014.38
2017-09-01T13:12:39.226Z,1014.37
2017-09-01T13:13:51.449Z,1014.35
2017-09-01T13:15:03.759Z,1014.32
2017-09-01T13:16:15.713Z,1014.28
2017-09-01T13:17:28.021Z,1014.26
2017-09-01T13:18:39.348Z,1014.24
2017-09-01T13:19:51.894Z,1014.19
2017-09-01T13:21:03.257Z,1014.19
2017-09-01T13:22:15.889Z,1014.2
2017-09-01T13:23:27.856Z,1014.21
2017-09-01T13:24:39.782Z,1014.22
2017-09-01T13:25:51.741Z,1014.21
2017-09-01T13:27:03.979Z,1014.24
2017-09-01T13:28:16.546Z,1014.24
2017-09-01T13:29:28.534Z,1014.22
2017-09-01T13:30:41.110Z,1014.25
2017-09-01T13:31:53.677Z,1014.22
2017-09-01T13:33:05.647Z,1014.18
2017-09-01T13:34:17.579Z,1014.19
2017-09-01T13:35:29.944Z,1014.17
2017-09-01T13:36:42.545Z,1014.21
2017-09-01T13:37:55.196Z,1014.16
2017-09-01T13:39:07.817Z,1014.16
2017-09-01T13:40:20.127Z,1014.14
2017-09-01T13:41:32.017Z,1014.15
2017-09-01T13:42:44.288Z,1014.11
2017-09-01T13:43:56.889Z,1014.1
2017-09-01T13:45:09.170Z,1014.11
2017-09-01T13:46:21.125Z,1014.12
2017-09-01T13:47:33.383Z,1014.13
2017-09-01T13:48:45.926Z,1014.11
2017-09-01T13:49:58.238Z,1014.08
2017-09-01T13:51:10.806Z,1014.05
2017-09-01T13:52:23.419Z,1014.05
2017-09-01T13:53:36.023Z,1014.09
2017-09-01T13:54:48.599Z,1014.07
2017-09-01T13:56:01.189Z,1014.05
2017-09-01T13:57:13.512Z,1014.03
2017-09-01T13:58:26.122Z,1014
2017-09-01T13:59:38.737Z,1013.97
2017-09-01T14:00:51.022Z,1014.02
2017-09-01T14:02:03.345Z,1013.98
2017-09-01T14:03:15.976Z,1013.96
2017-09-01T14:04:27.959Z,1013.94
2017-09-01T14:05:40.571Z,1013.91
2017-09-01T14:06:53.166Z,1013.92
2017-09-01T14:08:05.793Z,1013.89
2017-09-01T14:09:18.371Z,1013.9
2017-09-01T14:10:30.964Z,1013.95
2017-09-01T14:11:43.267Z,1013.94
2017-09-01T14:12:55.515Z,1013.9
2017-09-01T14:14:08.074Z,1013.89
2017-09-01T14:15:20.635Z,1013.88
2017-09-01T14:16:32.571Z,1013.86
2017-09-01T14:17:44.589Z,1013.81
2017-09-01T14:18:57.290Z,1013.82
2017-09-01T14:20:09.909Z,1013.79
2017-09-01T14:21:22.150Z,1013.79
2017-09-01T14:22:34.454Z,1013.79
2017-09-01T14:23:46.770Z,1013.75
2017-09-01T14:24:59.063Z,1013.75
2017-09-01T14:26:11.655Z,1013.7
2017-09-01T14:27:23.916Z,1013.68
2017-09-01T14:28:35.946Z,1013.7
2017-09-01T14:29:48.577Z,1013.72
2017-09-01T14:31:01.114Z,1013.73
2017-09-01T14:32:13.665Z,1013.67
2017-09-01T14:33:25.660Z,1013.67
2017-09-01T14:34:38.250Z,1013.68
2017-09-01T14:35:50.470Z,1013.67
2017-09-01T14:37:02.789Z,1013.64
2017-09-01T14:38:15.047Z,1013.68